Time;durP1;ratioP1;P1;durP2;ratioP2;P2;SDS_P1;SDS_P2;PMS_P1;PMS_P2;Temp;Humidity;BMP_temperature;BMP_pressure;BME280_temperature;BME280_humidity;BME280_pressure;Samples;Min_cycle;Max_cycle;Signal;HPM_P1;HPM_P2
2024/04/10 00:00:22;;;;;;;12.15;3.40;;;;;;;;;;5388111;27;20022;-81
2024/04/10 00:03:05;;;;;;;8.98;3.22;;;;;;;;;;5384781;27;20024;-82
2024/04/10 00:05:39;;;;;;;9.65;3.33;;;;;;;;;;5407199;27;20825;-82
2024/04/10 00:08:14;;;;;;;10.85;3.28;;;;;;;;;;5386990;27;20005;-81
2024/04/10 00:10:54;;;;;;;14.05;3.50;;;;;;;;;;5364393;27;20016;-81
2024/04/10 00:13:30;;;;;;;12.93;3.72;;;;;;;;;;5422185;27;20012;-81
2024/04/10 00:16:05;;;;;;;8.27;3.65;;;;;;;;;;5394329;27;20018;-81
2024/04/10 00:18:41;;;;;;;11.52;3.25;;;;;;;;;;5385216;27;20000;-81
2024/04/10 00:21:19;;;;;;;10.40;3.53;;;;;;;;;;5387522;27;20024;-82
2024/04/10 00:23:51;;;;;;;8.65;3.08;;;;;;;;;;5386931;27;20005;-80
2024/04/10 00:26:26;;;;;;;13.10;4.47;;;;;;;;;;5382482;27;20008;-81
2024/04/10 00:29:01;;;;;;;13.48;4.03;;;;;;;;;;5408743;27;20027;-81
2024/04/10 00:31:36;;;;;;;9.55;3.30;;;;;;;;;;5385568;27;20011;-81
2024/04/10 00:34:11;;;;;;;11.55;3.88;;;;;;;;;;5343467;27;20027;-82
2024/04/10 00:36:46;;;;;;;14.05;4.38;;;;;;;;;;5349184;27;20023;-81
2024/04/10 00:39:17;;;;;;;11.10;4.20;;;;;;;;;;5384729;27;19996;-81
2024/04/10 00:41:52;;;;;;;9.32;4.13;;;;;;;;;;5391609;27;20048;-80
2024/04/10 00:44:25;;;;;;;;;;;;;;;;;;5393729;27;20008;-81
2024/04/10 00:47:04;;;;;;;14.02;3.72;;;;;;;;;;5391147;27;19928;-82
2024/04/10 00:49:39;;;;;;;13.18;3.55;;;;;;;;;;5401522;27;20032;-81
2024/04/10 00:52:16;;;;;;;12.48;3.38;;;;;;;;;;5392211;27;20015;-82
2024/04/10 00:54:48;;;;;;;15.82;4.25;;;;;;;;;;5392259;27;20018;-81
2024/04/10 00:57:23;;;;;;;19.45;5.03;;;;;;;;;;5389182;27;20019;-81
2024/04/10 00:59:55;;;;;;;;;;;;;;;;;;5389075;27;20067;-81
2024/04/10 01:02:32;;;;;;;9.48;3.63;;;;;;;;;;5388695;27;19928;-81
2024/04/10 01:05:12;;;;;;;11.75;3.58;;;;;;;;;;5417914;27;20020;-81
2024/04/10 01:07:44;;;;;;;8.88;3.33;;;;;;;;;;5388182;27;20014;-82
2024/04/10 01:10:21;;;;;;;8.27;3.00;;;;;;;;;;5387122;27;20015;-81
2024/04/10 01:12:54;;;;;;;11.30;3.58;;;;;;;;;;5395123;27;20000;-81
2024/04/10 01:15:28;;;;;;;9.05;3.67;;;;;;;;;;5384087;27;20008;-81
2024/04/10 01:18:04;;;;;;;10.75;3.50;;;;;;;;;;5380397;27;20019;-82
2024/04/10 01:20:44;;;;;;;9.88;3.90;;;;;;;;;;5389290;27;20023;-81
2024/04/10 01:23:19;;;;;;;10.75;3.92;;;;;;;;;;5384672;27;20005;-80
2024/04/10 01:25:55;;;;;;;8.45;3.05;;;;;;;;;;5387052;27;20012;-82
2024/04/10 01:28:27;;;;;;;12.43;4.72;;;;;;;;;;5391032;27;20000;-80
2024/04/10 01:31:02;;;;;;;11.50;3.58;;;;;;;;;;5418348;27;20015;-80
2024/04/10 01:33:33;;;;;;;13.10;3.38;;;;;;;;;;5389544;27;20019;-81
2024/04/10 01:36:14;;;;;;;8.88;3.55;;;;;;;;;;5390677;27;20035;-81
2024/04/10 01:38:49;;;;;;;12.02;3.70;;;;;;;;;;5413602;27;20004;-81
2024/04/10 01:41:23;;;;;;;12.05;4.00;;;;;;;;;;5389429;27;20018;-81
2024/04/10 01:43:56;;;;;;;9.98;3.28;;;;;;;;;;5407426;27;20007;-81
2024/04/10 01:46:34;;;;;;;12.45;3.42;;;;;;;;;;5382018;27;20062;-81
2024/04/10 01:49:06;;;;;;;12.88;3.60;;;;;;;;;;5392952;27;20441;-81
2024/04/10 01:51:41;;;;;;;11.60;3.83;;;;;;;;;;5379548;27;19999;-81
2024/04/10 01:54:15;;;;;;;11.80;3.95;;;;;;;;;;5391906;27;20363;-82
2024/04/10 01:56:50;;;;;;;12.15;3.97;;;;;;;;;;5386758;27;20005;-81
2024/04/10 01:59:22;;;;;;;9.35;3.17;;;;;;;;;;5389558;27;20091;-80
2024/04/10 02:01:56;;;;;;;11.90;4.80;;;;;;;;;;5383548;27;20023;-82
2024/04/10 02:04:34;;;;;;;12.55;3.88;;;;;;;;;;5393794;27;20004;-81
2024/04/10 02:07:09;;;;;;;14.70;4.07;;;;;;;;;;5389661;27;20003;-81
2024/04/10 02:09:43;;;;;;;14.23;4.18;;;;;;;;;;5394764;27;20031;-82
2024/04/10 02:12:17;;;;;;;10.13;3.70;;;;;;;;;;5396004;27;20068;-83
2024/04/10 02:14:53;;;;;;;11.80;3.45;;;;;;;;;;5392843;27;20004;-81
2024/04/10 02:17:29;;;;;;;13.68;4.70;;;;;;;;;;5392204;27;20023;-82
2024/04/10 02:20:01;;;;;;;9.98;3.20;;;;;;;;;;5399719;27;20015;-81
2024/04/10 02:22:37;;;;;;;12.93;3.38;;;;;;;;;;5397378;27;20012;-81
2024/04/10 02:25:13;;;;;;;13.85;4.93;;;;;;;;;;5393427;27;20027;-80
2024/04/10 02:27:48;;;;;;;8.20;3.28;;;;;;;;;;5396863;27;20027;-81
2024/04/10 02:30:26;;;;;;;9.98;3.20;;;;;;;;;;5407155;27;20022;-82
2024/04/10 02:33:01;;;;;;;;;;;;;;;;;;5394568;27;20018;-80
2024/04/10 02:35:34;;;;;;;;;;;;;;;;;;5391946;27;20005;-81
2024/04/10 02:38:09;;;;;;;12.82;4.03;;;;;;;;;;5420199;27;19928;-81
2024/04/10 02:40:46;;;;;;;12.90;3.60;;;;;;;;;;5385331;27;20014;-81
2024/04/10 02:43:22;;;;;;;14.38;3.70;;;;;;;;;;5398498;27;20011;-81
2024/04/10 02:45:54;;;;;;;11.50;3.78;;;;;;;;;;5383995;27;20019;-81
2024/04/10 02:48:30;;;;;;;11.90;4.18;;;;;;;;;;5388332;27;20024;-81
2024/04/10 02:51:06;;;;;;;14.52;3.67;;;;;;;;;;5392402;27;20438;-81
2024/04/10 02:53:41;;;;;;;10.23;3.83;;;;;;;;;;5389001;27;20028;-81
2024/04/10 02:56:20;;;;;;;11.98;4.13;;;;;;;;;;5417501;27;20000;-81
2024/04/10 02:58:55;;;;;;;11.30;3.78;;;;;;;;;;5397030;27;20004;-81
2024/04/10 03:01:27;;;;;;;12.30;3.95;;;;;;;;;;5399720;27;20004;-81
2024/04/10 03:04:02;;;;;;;8.88;3.33;;;;;;;;;;5393688;27;20060;-81
2024/04/10 03:06:37;;;;;;;18.52;4.97;;;;;;;;;;5387547;27;20012;-81
2024/04/10 03:09:14;;;;;;;11.00;3.97;;;;;;;;;;5398216;27;20008;-81
2024/04/10 03:11:50;;;;;;;13.07;4.03;;;;;;;;;;5328565;27;20011;-81
2024/04/10 03:14:26;;;;;;;11.27;3.40;;;;;;;;;;5398220;27;20011;-80
2024/04/10 03:17:01;;;;;;;21.58;4.30;;;;;;;;;;5424011;27;20019;-81
2024/04/10 03:19:37;;;;;;;11.40;3.55;;;;;;;;;;5419115;27;20022;-82
2024/04/10 03:22:12;;;;;;;10.90;3.72;;;;;;;;;;5386930;27;20473;-82
2024/04/10 03:24:49;;;;;;;10.85;4.22;;;;;;;;;;5412451;27;20018;-81
2024/04/10 03:27:24;;;;;;;10.35;3.63;;;;;;;;;;5397688;27;20027;-82
2024/04/10 03:29:59;;;;;;;7.55;3.67;;;;;;;;;;5387024;27;20020;-81
2024/04/10 03:32:31;;;;;;;10.85;4.68;;;;;;;;;;5390877;27;20043;-80
2024/04/10 03:35:06;;;;;;;5.47;2.03;;;;;;;;;;5383138;27;20008;-81
2024/04/10 03:37:42;;;;;;;11.82;3.80;;;;;;;;;;5395372;27;20000;-81
2024/04/10 03:40:19;;;;;;;14.93;4.20;;;;;;;;;;5425434;27;20011;-81
2024/04/10 03:42:58;;;;;;;9.10;3.22;;;;;;;;;;5422087;27;19999;-80
2024/04/10 03:45:33;;;;;;;6.60;3.45;;;;;;;;;;5384992;27;20024;-81
2024/04/10 03:48:08;;;;;;;11.57;4.35;;;;;;;;;;5409492;27;20022;-81
2024/04/10 03:50:49;;;;;;;10.60;3.50;;;;;;;;;;5394502;27;20442;-80
2024/04/10 03:53:24;;;;;;;10.68;3.80;;;;;;;;;;5387533;27;20028;-81
2024/04/10 03:56:00;;;;;;;11.95;3.97;;;;;;;;;;5415156;27;20008;-81
2024/04/10 03:58:38;;;;;;;;;;;;;;;;;;5391540;27;20018;-80
2024/04/10 04:01:12;;;;;;;10.32;4.47;;;;;;;;;;5382911;27;20316;-81
2024/04/10 04:03:47;;;;;;;8.60;3.70;;;;;;;;;;5393492;27;20534;-80
2024/04/10 04:06:19;;;;;;;8.13;3.63;;;;;;;;;;5374057;27;20016;-80
2024/04/10 04:08:55;;;;;;;13.63;4.60;;;;;;;;;;5394457;27;20592;-80
2024/04/10 04:11:27;;;;;;;11.07;3.80;;;;;;;;;;5382361;27;20014;-80
2024/04/10 04:14:03;;;;;;;12.63;3.75;;;;;;;;;;5360100;27;20785;-82
2024/04/10 04:16:38;;;;;;;9.90;3.63;;;;;;;;;;5387516;27;20015;-81
2024/04/10 04:19:19;;;;;;;10.82;3.70;;;;;;;;;;5405935;27;20068;-80
2024/04/10 04:21:51;;;;;;;9.38;3.50;;;;;;;;;;5384072;27;20794;-82
2024/04/10 04:24:25;;;;;;;11.98;4.25;;;;;;;;;;5384124;27;20008;-82
2024/04/10 04:26:57;;;;;;;7.40;3.38;;;;;;;;;;5386193;27;20028;-82
2024/04/10 04:29:33;;;;;;;8.93;3.70;;;;;;;;;;5362815;27;20013;-80
2024/04/10 04:32:08;;;;;;;10.40;3.70;;;;;;;;;;5405892;27;20016;-81
2024/04/10 04:34:46;;;;;;;11.43;4.18;;;;;;;;;;5388500;27;20483;-81
2024/04/10 04:37:18;;;;;;;10.90;3.72;;;;;;;;;;5388878;27;20014;-82
2024/04/10 04:39:53;;;;;;;8.43;3.70;;;;;;;;;;5379017;27;20004;-81
2024/04/10 04:42:31;;;;;;;14.30;4.53;;;;;;;;;;5380273;27;20019;-81
2024/04/10 04:45:09;;;;;;;12.32;4.10;;;;;;;;;;5379633;27;20014;-82
2024/04/10 04:47:48;;;;;;;19.80;5.88;;;;;;;;;;5355397;27;20004;-81
2024/04/10 04:50:23;;;;;;;12.27;4.05;;;;;;;;;;5407082;27;20469;-81
2024/04/10 04:52:59;;;;;;;15.05;4.78;;;;;;;;;;5380899;27;20004;-82
2024/04/10 04:55:31;;;;;;;12.57;3.78;;;;;;;;;;5384422;27;20922;-82
2024/04/10 04:58:07;;;;;;;11.73;4.00;;;;;;;;;;5412381;27;20804;-82
2024/04/10 05:00:42;;;;;;;10.93;3.90;;;;;;;;;;5378683;27;20011;-83
2024/04/10 05:06:09;;;;;;;9.60;4.38;;;;;;;;;;5409223;27;20027;-83
2024/04/10 05:08:44;;;;;;;;;;;;;;;;;;5361095;27;20000;-82
2024/04/10 05:11:24;;;;;;;11.15;4.28;;;;;;;;;;5400610;27;19936;-82
2024/04/10 05:13:59;;;;;;;10.88;4.55;;;;;;;;;;5407543;27;20023;-82
2024/04/10 05:16:37;;;;;;;9.80;4.43;;;;;;;;;;5378982;27;20026;-81
2024/04/10 05:19:11;;;;;;;10.05;4.38;;;;;;;;;;5382747;27;20016;-81
2024/04/10 05:21:49;;;;;;;10.27;4.55;;;;;;;;;;5380364;27;20008;-82
2024/04/10 05:24:39;;;;;;;12.77;4.40;;;;;;;;;;5385948;27;20806;-81
2024/04/10 05:27:32;;;;;;;12.93;4.20;;;;;;;;;;5385072;27;20007;-82
2024/04/10 05:30:10;;;;;;;8.68;3.67;;;;;;;;;;5406333;27;20667;-84
2024/04/10 05:32:45;;;;;;;11.25;4.60;;;;;;;;;;5351763;27;20663;-83
2024/04/10 05:35:27;;;;;;;11.52;5.13;;;;;;;;;;5383112;27;20008;-83
2024/04/10 05:38:02;;;;;;;8.95;3.63;;;;;;;;;;5383547;27;20044;-82
2024/04/10 05:40:38;;;;;;;4.35;2.40;;;;;;;;;;5386710;27;19996;-82
2024/04/10 05:43:20;;;;;;;12.15;5.15;;;;;;;;;;5391545;27;20470;-83
2024/04/10 05:45:54;;;;;;;14.25;5.15;;;;;;;;;;5384015;27;20023;-83
2024/04/10 05:48:31;;;;;;;12.55;3.72;;;;;;;;;;5390313;27;20014;-84
2024/04/10 05:51:09;;;;;;;10.77;4.57;;;;;;;;;;5386192;27;20014;-82
2024/04/10 05:53:46;;;;;;;14.50;4.85;;;;;;;;;;5357011;27;20014;-87
2024/04/10 05:56:20;;;;;;;11.30;4.85;;;;;;;;;;5391182;27;20015;-83
2024/04/10 05:58:59;;;;;;;9.00;4.45;;;;;;;;;;5382532;27;20008;-83
2024/04/10 06:01:32;;;;;;;8.35;4.00;;;;;;;;;;5382138;27;20004;-82
2024/04/10 06:04:07;;;;;;;9.95;4.55;;;;;;;;;;5385591;27;20004;-81
2024/04/10 06:06:42;;;;;;;12.05;4.47;;;;;;;;;;5356671;27;20003;-81
2024/04/10 06:09:16;;;;;;;12.02;4.50;;;;;;;;;;5428901;27;20019;-83
2024/04/10 06:11:50;;;;;;;13.38;4.75;;;;;;;;;;5388915;27;20000;-81
2024/04/10 06:14:30;;;;;;;9.10;4.50;;;;;;;;;;5387557;27;20516;-80
2024/04/10 06:17:02;;;;;;;12.40;4.70;;;;;;;;;;5396912;27;20004;-82
2024/04/10 06:19:36;;;;;;;9.60;4.03;;;;;;;;;;5388661;27;20052;-81
2024/04/10 06:22:15;;;;;;;11.05;4.95;;;;;;;;;;5385986;27;20011;-83
2024/04/10 06:24:55;;;;;;;14.35;4.45;;;;;;;;;;5395235;27;20012;-84
2024/04/10 06:27:31;;;;;;;15.40;5.30;;;;;;;;;;5386168;27;20004;-83
2024/04/10 06:30:11;;;;;;;15.75;5.63;;;;;;;;;;5379747;27;20005;-82
2024/04/10 06:32:43;;;;;;;9.68;4.78;;;;;;;;;;5388341;27;20967;-81
2024/04/10 06:35:19;;;;;;;15.50;5.43;;;;;;;;;;5386049;27;20806;-81
2024/04/10 06:37:53;;;;;;;13.30;5.82;;;;;;;;;;5384932;27;20052;-81
2024/04/10 06:40:28;;;;;;;14.52;4.53;;;;;;;;;;5372676;27;20450;-81
2024/04/10 06:43:03;;;;;;;15.10;5.10;;;;;;;;;;5382855;27;20012;-80
2024/04/10 06:45:38;;;;;;;12.60;5.32;;;;;;;;;;5349726;27;20099;-81
2024/04/10 06:48:11;;;;;;;11.90;5.07;;;;;;;;;;5381711;27;20015;-81
2024/04/10 06:50:46;;;;;;;11.88;4.93;;;;;;;;;;5377459;27;20406;-81
2024/04/10 06:53:21;;;;;;;13.77;5.05;;;;;;;;;;5380645;27;20407;-80
2024/04/10 06:55:57;;;;;;;14.90;5.63;;;;;;;;;;5382209;27;20008;-80
2024/04/10 06:58:33;;;;;;;11.45;4.50;;;;;;;;;;5406736;27;20360;-82
2024/04/10 07:01:11;;;;;;;15.27;5.28;;;;;;;;;;5379787;27;20112;-82
2024/04/10 07:03:43;;;;;;;16.55;5.72;;;;;;;;;;5376925;27;20082;-82
2024/04/10 07:06:19;;;;;;;17.88;6.20;;;;;;;;;;5402748;27;20003;-82
2024/04/10 07:08:59;;;;;;;9.93;5.40;;;;;;;;;;5410071;27;20011;-80
2024/04/10 07:11:34;;;;;;;11.38;5.20;;;;;;;;;;5381548;27;20029;-83
2024/04/10 07:14:08;;;;;;;12.10;4.95;;;;;;;;;;5392819;27;20016;-82
2024/04/10 07:16:46;;;;;;;14.30;5.90;;;;;;;;;;5372174;27;19992;-83
2024/04/10 07:19:22;;;;;;;11.98;4.53;;;;;;;;;;5376726;27;20000;-80
2024/04/10 07:21:56;;;;;;;15.37;5.33;;;;;;;;;;5406459;27;20018;-82
2024/04/10 07:24:37;;;;;;;11.93;5.15;;;;;;;;;;5408656;27;20000;-80
2024/04/10 07:27:14;;;;;;;11.95;4.70;;;;;;;;;;5385117;27;20011;-84
2024/04/10 07:29:51;;;;;;;10.95;4.88;;;;;;;;;;5383214;27;20015;-81
2024/04/10 07:32:28;;;;;;;10.85;4.35;;;;;;;;;;5391154;27;20004;-86
2024/04/10 07:35:01;;;;;;;12.82;5.03;;;;;;;;;;5407907;27;20000;-87
2024/04/10 07:37:35;;;;;;;12.80;5.35;;;;;;;;;;5386086;27;20458;-86
2024/04/10 07:40:15;;;;;;;10.55;4.78;;;;;;;;;;5384495;27;20013;-86
2024/04/10 07:42:50;;;;;;;11.07;5.00;;;;;;;;;;5390118;27;20019;-86
2024/04/10 07:45:26;;;;;;;9.77;4.45;;;;;;;;;;5370512;27;20019;-87
2024/04/10 07:48:02;;;;;;;11.55;4.85;;;;;;;;;;5371243;27;20353;-88
2024/04/10 07:50:34;;;;;;;10.68;5.15;;;;;;;;;;5380424;27;20011;-87
2024/04/10 07:53:15;;;;;;;12.88;5.43;;;;;;;;;;5383020;27;20004;-86
2024/04/10 07:55:50;;;;;;;7.50;4.28;;;;;;;;;;5381973;27;20008;-87
2024/04/10 07:58:25;;;;;;;;;;;;;;;;;;5394750;27;20823;-86
2024/04/10 08:01:01;;;;;;;14.10;5.22;;;;;;;;;;5402059;27;19940;-88
2024/04/10 08:03:39;;;;;;;9.43;4.22;;;;;;;;;;5358063;27;20007;-85
2024/04/10 08:06:14;;;;;;;11.70;5.07;;;;;;;;;;5371809;27;20008;-85
2024/04/10 08:08:48;;;;;;;10.55;4.70;;;;;;;;;;5376698;27;20118;-85
2024/04/10 08:11:27;;;;;;;16.67;4.72;;;;;;;;;;5400014;27;20009;-85
2024/04/10 08:14:03;;;;;;;12.98;5.93;;;;;;;;;;5402992;27;20026;-85
2024/04/10 08:16:40;;;;;;;12.15;4.75;;;;;;;;;;5374654;27;20004;-86
2024/04/10 08:19:17;;;;;;;10.35;5.40;;;;;;;;;;5376523;27;20015;-84
2024/04/10 08:21:54;;;;;;;11.07;4.65;;;;;;;;;;5365534;27;20083;-85
2024/04/10 08:24:28;;;;;;;12.63;4.85;;;;;;;;;;5360442;27;20068;-86
2024/04/10 08:27:06;;;;;;;12.98;4.70;;;;;;;;;;5402505;27;20455;-87
2024/04/10 08:29:41;;;;;;;15.95;5.57;;;;;;;;;;5383204;27;20043;-84
2024/04/10 08:32:13;;;;;;;;;;;;;;;;;;5398013;27;20506;-84
2024/04/10 08:34:49;;;;;;;9.73;4.63;;;;;;;;;;5376979;27;19928;-85
2024/04/10 08:37:22;;;;;;;11.48;5.10;;;;;;;;;;5379729;27;20004;-86
2024/04/10 08:39:56;;;;;;;11.27;5.10;;;;;;;;;;5375454;27;20032;-86
2024/04/10 08:42:29;;;;;;;;;;;;;;;;;;5397649;27;20012;-84
2024/04/10 08:45:12;;;;;;;8.88;4.38;;;;;;;;;;5380773;27;20252;-84
2024/04/10 08:47:50;;;;;;;;;;;;;;;;;;5377752;27;20014;-85
2024/04/10 08:50:28;;;;;;;9.43;5.20;;;;;;;;;;5378182;27;19928;-85
2024/04/10 08:53:02;;;;;;;13.07;4.30;;;;;;;;;;5350488;27;20027;-82
2024/04/10 08:55:43;;;;;;;11.85;4.93;;;;;;;;;;5389065;27;20004;-81
2024/04/10 08:58:32;;;;;;;16.20;4.57;;;;;;;;;;5386773;27;20021;-81
2024/04/10 09:01:09;;;;;;;12.90;5.70;;;;;;;;;;5371988;27;20020;-81
2024/04/10 09:03:44;;;;;;;10.65;5.00;;;;;;;;;;5383088;27;20026;-81
2024/04/10 09:06:22;;;;;;;9.95;4.35;;;;;;;;;;5404383;27;20066;-82
2024/04/10 09:09:00;;;;;;;11.75;4.68;;;;;;;;;;5376144;27;20008;-79
2024/04/10 09:11:35;;;;;;;8.60;4.22;;;;;;;;;;5378636;27;20012;-81
2024/04/10 09:14:10;;;;;;;9.65;4.53;;;;;;;;;;5376558;27;20870;-81
2024/04/10 09:16:49;;;;;;;9.85;4.10;;;;;;;;;;5401422;27;20023;-80
2024/04/10 09:19:21;;;;;;;11.80;4.60;;;;;;;;;;5379054;27;20041;-80
2024/04/10 09:21:59;;;;;;;11.68;4.70;;;;;;;;;;5370569;27;20963;-79
2024/04/10 09:24:36;;;;;;;11.60;4.65;;;;;;;;;;5383856;27;20576;-81
2024/04/10 09:27:12;;;;;;;8.13;3.72;;;;;;;;;;5376757;27;20023;-80
2024/04/10 09:29:44;;;;;;;12.20;5.28;;;;;;;;;;5371109;27;20510;-80
2024/04/10 09:32:24;;;;;;;10.27;4.05;;;;;;;;;;5350696;27;20012;-80
2024/04/10 09:34:56;;;;;;;9.38;4.10;;;;;;;;;;5376411;27;20454;-80
2024/04/10 09:37:34;;;;;;;8.95;3.80;;;;;;;;;;5375029;27;20461;-80
2024/04/10 09:40:09;;;;;;;11.73;4.25;;;;;;;;;;5397262;27;20114;-80
2024/04/10 09:42:48;;;;;;;9.30;3.38;;;;;;;;;;5372040;27;20022;-81
2024/04/10 09:45:24;;;;;;;8.70;3.33;;;;;;;;;;5377192;27;20023;-81
2024/04/10 09:48:08;;;;;;;7.00;3.30;;;;;;;;;;5374582;27;20335;-81
2024/04/10 09:50:45;;;;;;;7.43;3.05;;;;;;;;;;5363375;27;20014;-83
2024/04/10 09:53:20;;;;;;;7.20;3.07;;;;;;;;;;5378991;27;20008;-83
2024/04/10 09:55:55;;;;;;;9.55;3.60;;;;;;;;;;5403258;27;20015;-82
2024/04/10 09:58:35;;;;;;;9.00;3.15;;;;;;;;;;5371045;27;20004;-83
2024/04/10 10:01:09;;;;;;;10.25;3.53;;;;;;;;;;5346723;27;20055;-81
2024/04/10 10:03:57;;;;;;;10.23;3.77;;;;;;;;;;5381778;27;20047;-81
2024/04/10 10:06:34;;;;;;;9.77;3.90;;;;;;;;;;5400825;27;21389;-81
2024/04/10 10:09:09;;;;;;;10.13;3.60;;;;;;;;;;5376722;27;20027;-82
2024/04/10 10:11:41;;;;;;;6.68;3.03;;;;;;;;;;5345578;27;20005;-81
2024/04/10 10:14:19;;;;;;;6.22;3.00;;;;;;;;;;5361852;27;20015;-81
2024/04/10 10:17:03;;;;;;;6.50;2.97;;;;;;;;;;5387146;27;20522;-80
2024/04/10 10:19:41;;;;;;;;;;;;;;;;;;5370830;27;20486;-81
2024/04/10 10:22:17;;;;;;;6.57;3.10;;;;;;;;;;5377901;27;20351;-81
2024/04/10 10:25:02;;;;;;;7.30;2.92;;;;;;;;;;5373207;27;20016;-81
2024/04/10 10:27:34;;;;;;;8.00;3.30;;;;;;;;;;5370203;27;20087;-82
2024/04/10 10:30:10;;;;;;;7.32;3.13;;;;;;;;;;5371864;27;20027;-82
2024/04/10 10:32:42;;;;;;;6.25;2.70;;;;;;;;;;5369752;27;20018;-81
2024/04/10 10:35:17;;;;;;;7.05;2.45;;;;;;;;;;5370550;27;20008;-81
2024/04/10 10:37:55;;;;;;;7.43;3.20;;;;;;;;;;5408150;27;20091;-82
2024/04/10 10:40:31;;;;;;;8.18;3.33;;;;;;;;;;5377611;27;20335;-82
2024/04/10 10:43:19;;;;;;;8.77;2.55;;;;;;;;;;5381207;27;20451;-81
2024/04/10 10:45:56;;;;;;;;;;;;;;;;;;5382221;27;20031;-81
2024/04/10 10:49:01;;;;;;;6.38;2.65;;;;;;;;;;5370766;27;19928;-83
2024/04/10 10:51:44;;;;;;;5.30;2.38;;;;;;;;;;5373191;27;20036;-81
2024/04/10 10:54:34;;;;;;;4.43;2.10;;;;;;;;;;5382835;27;20516;-82
2024/04/10 10:57:15;;;;;;;5.65;2.85;;;;;;;;;;5375221;27;20677;-82
2024/04/10 10:59:58;;;;;;;7.47;3.60;;;;;;;;;;5359090;27;20012;-81
2024/04/10 11:02:36;;;;;;;7.18;2.97;;;;;;;;;;5348365;27;20007;-82
2024/04/10 11:05:10;;;;;;;10.43;3.78;;;;;;;;;;5407601;27;20040;-80
2024/04/10 11:07:46;;;;;;;6.53;2.80;;;;;;;;;;5378373;27;20034;-80
2024/04/10 11:10:25;;;;;;;7.43;3.03;;;;;;;;;;5373535;27;20457;-81
2024/04/10 11:13:02;;;;;;;8.52;2.88;;;;;;;;;;5381119;27;20022;-81
2024/04/10 11:15:42;;;;;;;10.95;3.50;;;;;;;;;;5368020;27;20005;-81
2024/04/10 11:18:17;;;;;;;9.02;3.60;;;;;;;;;;5396935;27;20018;-81
2024/04/10 11:20:54;;;;;;;6.38;2.75;;;;;;;;;;5379688;27;20012;-81
2024/04/10 11:23:30;;;;;;;8.68;3.08;;;;;;;;;;5397956;27;20032;-81
2024/04/10 11:26:05;;;;;;;9.40;3.22;;;;;;;;;;5378660;27;20083;-82
2024/04/10 11:28:44;;;;;;;8.45;3.47;;;;;;;;;;5401342;27;20947;-81
2024/04/10 11:31:16;;;;;;;8.85;3.30;;;;;;;;;;5399564;27;20020;-81
2024/04/10 11:33:52;;;;;;;10.65;3.45;;;;;;;;;;5378035;27;20004;-82
2024/04/10 11:36:24;;;;;;;7.63;3.40;;;;;;;;;;5401005;27;20008;-81
2024/04/10 11:39:01;;;;;;;;;;;;;;;;;;5395672;27;20506;-83
2024/04/10 11:41:34;;;;;;;;;;;;;;;;;;5338832;27;19960;-82
2024/04/10 11:44:15;;;;;;;7.10;2.75;;;;;;;;;;5367089;27;19936;-82
2024/04/10 11:46:48;;;;;;;5.82;3.13;;;;;;;;;;5383298;27;20079;-81
2024/04/10 11:49:25;;;;;;;5.82;2.60;;;;;;;;;;5381771;27;20023;-82
2024/04/10 11:52:00;;;;;;;7.70;2.70;;;;;;;;;;5379402;27;20018;-82
2024/04/10 11:54:38;;;;;;;5.97;2.50;;;;;;;;;;5368102;27;20083;-83
2024/04/10 11:57:13;;;;;;;6.22;2.50;;;;;;;;;;5373716;27;20022;-82
2024/04/10 11:59:52;;;;;;;6.53;2.70;;;;;;;;;;5380656;27;20107;-83
2024/04/10 12:02:26;;;;;;;4.72;2.35;;;;;;;;;;5377304;27;20008;-82
2024/04/10 12:05:00;;;;;;;4.47;2.35;;;;;;;;;;5377431;27;20741;-82
2024/04/10 12:07:41;;;;;;;10.70;2.65;;;;;;;;;;5375814;27;20004;-82
2024/04/10 12:10:19;;;;;;;5.63;2.50;;;;;;;;;;5387608;27;20052;-82
2024/04/10 12:12:53;;;;;;;6.47;2.53;;;;;;;;;;5378560;27;20463;-82
2024/04/10 12:15:30;;;;;;;6.13;2.65;;;;;;;;;;5379770;27;20008;-83
2024/04/10 12:18:02;;;;;;;5.70;2.80;;;;;;;;;;5410073;27;20051;-82
2024/04/10 12:20:39;;;;;;;5.28;2.10;;;;;;;;;;5364280;27;20008;-82
2024/04/10 12:23:28;;;;;;;6.88;2.38;;;;;;;;;;5362747;27;20474;-83
2024/04/10 12:26:15;;;;;;;8.10;2.30;;;;;;;;;;5405334;27;20003;-84
2024/04/10 12:28:47;;;;;;;4.32;1.65;;;;;;;;;;5386239;27;20015;-84
2024/04/10 12:31:25;;;;;;;6.65;1.80;;;;;;;;;;5427245;22;20089;-84
2024/04/10 12:33:57;;;;;;;3.38;1.80;;;;;;;;;;5387137;27;20068;-83
2024/04/10 12:39:25;;;;;;;5.05;2.05;;;;;;;;;;5408757;27;20039;-83
2024/04/10 12:42:00;;;;;;;5.57;2.28;;;;;;;;;;5403773;27;20021;-84
2024/04/10 12:44:37;;;;;;;;;;;;;;;;;;5410556;27;20007;-83
2024/04/10 12:47:17;;;;;;;4.00;1.88;;;;;;;;;;5410837;27;19928;-83
2024/04/10 12:49:50;;;;;;;5.82;1.92;;;;;;;;;;5404030;27;20369;-84
2024/04/10 12:52:31;;;;;;;4.53;1.98;;;;;;;;;;5415039;27;20018;-84
2024/04/10 12:55:03;;;;;;;4.43;1.85;;;;;;;;;;5432657;27;20008;-84
2024/04/10 12:57:38;;;;;;;4.28;2.22;;;;;;;;;;5414431;27;20006;-83
2024/04/10 13:00:12;;;;;;;4.93;2.05;;;;;;;;;;5410127;27;20008;-83
2024/04/10 13:02:51;;;;;;;5.15;1.95;;;;;;;;;;5407286;27;20017;-84
2024/04/10 13:05:23;;;;;;;4.75;2.15;;;;;;;;;;5406418;27;20397;-84
2024/04/10 13:09:24;;;;;;;5.55;1.88;;;;;;;;;;5632717;26;20328;-84
2024/04/10 13:11:56;;;;;;;4.85;1.92;;;;;;;;;;5570982;26;20074;-84
2024/04/10 13:14:34;;;;;;;6.90;1.92;;;;;;;;;;5577919;26;20039;-84
2024/04/10 13:17:06;;;;;;;5.43;1.63;;;;;;;;;;5573504;26;19996;-83
2024/04/10 13:19:42;;;;;;;5.63;1.73;;;;;;;;;;5572568;26;20000;-84
2024/04/10 13:22:14;;;;;;;5.72;1.95;;;;;;;;;;5574183;26;19996;-84
2024/04/10 13:24:52;;;;;;;6.18;1.80;;;;;;;;;;5597415;26;20019;-83
2024/04/10 13:27:24;;;;;;;5.25;1.73;;;;;;;;;;5576678;26;20011;-83
2024/04/10 13:30:00;;;;;;;4.43;1.73;;;;;;;;;;5599055;26;20032;-83
2024/04/10 13:32:33;;;;;;;3.42;1.80;;;;;;;;;;5575305;26;20080;-83
2024/04/10 13:35:09;;;;;;;5.30;2.33;;;;;;;;;;5578028;26;20011;-83
2024/04/10 13:37:42;;;;;;;5.13;1.95;;;;;;;;;;5573866;26;21211;-85
2024/04/10 13:40:20;;;;;;;5.47;1.77;;;;;;;;;;5572546;26;20019;-85
2024/04/10 13:43:01;;;;;;;6.20;1.98;;;;;;;;;;5564862;26;20011;-83
2024/04/10 13:45:33;;;;;;;4.97;1.65;;;;;;;;;;5553810;26;20016;-84
2024/04/10 13:48:10;;;;;;;4.30;1.70;;;;;;;;;;5570401;26;20012;-85
2024/04/10 13:50:43;;;;;;;4.63;1.48;;;;;;;;;;5561331;26;23301;-85
2024/04/10 13:53:18;;;;;;;4.80;1.48;;;;;;;;;;5573092;26;19996;-85
2024/04/10 13:56:03;;;;;;;2.83;1.80;;;;;;;;;;5573045;26;20022;-86
2024/04/10 13:58:39;;;;;;;5.75;1.92;;;;;;;;;;5570754;26;20001;-85
2024/04/10 14:01:19;;;;;;;5.93;1.45;;;;;;;;;;5570680;26;20380;-84
2024/04/10 14:03:55;;;;;;;4.47;1.77;;;;;;;;;;5568805;26;20008;-85
2024/04/10 14:06:28;;;;;;;5.07;1.80;;;;;;;;;;5561395;26;19997;-86
2024/04/10 14:09:06;;;;;;;7.82;1.70;;;;;;;;;;5560624;26;19997;-84
2024/04/10 14:11:43;;;;;;;6.25;2.08;;;;;;;;;;5571701;26;20004;-86
2024/04/10 14:14:21;;;;;;;4.80;1.80;;;;;;;;;;5560925;26;20782;-85
2024/04/10 14:16:53;;;;;;;4.78;2.03;;;;;;;;;;5555520;26;20005;-86
2024/04/10 14:19:28;;;;;;;2.95;1.50;;;;;;;;;;5530296;26;19993;-86
2024/04/10 14:22:01;;;;;;;4.53;1.35;;;;;;;;;;5540878;26;20000;-86
2024/04/10 14:24:35;;;;;;;5.35;1.70;;;;;;;;;;5554984;26;20000;-86
2024/04/10 14:27:13;;;;;;;5.30;1.60;;;;;;;;;;5558530;26;20004;-86
2024/04/10 14:29:52;;;;;;;3.95;1.42;;;;;;;;;;5559550;26;20019;-86
2024/04/10 14:32:28;;;;;;;3.90;1.67;;;;;;;;;;5554398;26;20008;-86
2024/04/10 14:35:06;;;;;;;3.53;1.37;;;;;;;;;;5584107;26;20416;-85
2024/04/10 14:37:44;;;;;;;3.25;1.33;;;;;;;;;;5564780;26;20265;-83
2024/04/10 14:40:21;;;;;;;6.50;1.63;;;;;;;;;;5572579;26;20021;-85
2024/04/10 14:43:00;;;;;;;4.80;1.27;;;;;;;;;;5559932;26;20000;-85
2024/04/10 14:45:37;;;;;;;4.00;1.73;;;;;;;;;;5542285;26;20298;-85
2024/04/10 14:48:12;;;;;;;3.88;1.52;;;;;;;;;;5567921;26;19992;-85
2024/04/10 14:50:56;;;;;;;3.22;1.10;;;;;;;;;;5549687;26;19996;-86
2024/04/10 14:53:28;;;;;;;;;;;;;;;;;;5565612;26;20012;-85
2024/04/10 14:56:06;;;;;;;6.22;1.67;;;;;;;;;;5575454;26;19925;-85
2024/04/10 14:58:42;;;;;;;3.47;1.20;;;;;;;;;;5537821;21;20035;-88
2024/04/10 15:01:16;;;;;;;4.22;1.20;;;;;;;;;;5449059;26;20984;-89
2024/04/10 15:03:49;;;;;;;3.58;1.42;;;;;;;;;;5461200;27;20029;-89
2024/04/10 15:06:27;;;;;;;3.33;1.33;;;;;;;;;;5486874;27;20423;-88
2024/04/10 15:09:04;;;;;;;4.78;1.42;;;;;;;;;;5453665;27;20006;-88
2024/04/10 15:11:39;;;;;;;4.10;1.23;;;;;;;;;;5476756;26;20017;-90
2024/04/10 15:14:19;;;;;;;3.78;1.35;;;;;;;;;;5511244;26;20010;-89
2024/04/10 15:16:55;;;;;;;4.03;1.42;;;;;;;;;;5458029;27;20009;-89
2024/04/10 15:19:30;;;;;;;5.05;1.48;;;;;;;;;;5488316;26;20022;-88
2024/04/10 15:22:07;;;;;;;3.85;1.40;;;;;;;;;;5464030;27;20016;-88
2024/04/10 15:24:43;;;;;;;5.60;1.48;;;;;;;;;;5453124;27;20002;-88
2024/04/10 15:27:17;;;;;;;2.83;1.50;;;;;;;;;;5486592;26;20024;-87
2024/04/10 15:29:54;;;;;;;4.10;1.83;;;;;;;;;;5488400;27;20414;-91
2024/04/10 15:32:28;;;;;;;4.43;2.25;;;;;;;;;;5468170;27;20400;-88
2024/04/10 15:35:05;;;;;;;3.50;1.35;;;;;;;;;;5486095;27;20006;-87
2024/04/10 15:37:39;;;;;;;5.97;1.25;;;;;;;;;;5482619;26;20087;-89
2024/04/10 15:40:15;;;;;;;5.15;1.35;;;;;;;;;;5478498;26;20078;-90